createdAt,value
2023-08-12T00:00:23.922Z,101576.00
2023-08-12T00:02:53.445Z,101586.78
2023-08-12T00:05:21.546Z,101578.81
2023-08-12T00:07:50.508Z,101584.22
2023-08-12T00:10:18.654Z,101579.91
2023-08-12T00:12:46.749Z,101587.13
2023-08-12T00:15:14.694Z,101592.63
2023-08-12T00:17:43.234Z,101587.34
2023-08-12T00:20:13.984Z,101587.34
2023-08-12T00:22:42.795Z,101578.63
2023-08-12T00:25:11.036Z,101589.38
2023-08-12T00:27:39.859Z,101590.38
2023-08-12T00:30:09.101Z,101591.34
2023-08-12T00:32:37.182Z,101593.28
2023-08-12T00:35:06.510Z,101590.72
2023-08-12T00:37:35.971Z,101590.72
2023-08-12T00:40:04.704Z,101596.31
2023-08-12T00:42:33.897Z,101598.16
2023-08-12T00:45:01.973Z,101589.34
2023-08-12T00:47:31.598Z,101583.09
2023-08-12T00:50:00.835Z,101588.53
2023-08-12T00:52:28.979Z,101592.22
2023-08-12T00:55:00.549Z,101586.91
2023-08-12T00:57:28.671Z,101595.97
2023-08-12T00:59:58.181Z,101601.25
2023-08-12T01:02:26.507Z,101602.22
2023-08-12T01:04:54.895Z,101589.75
2023-08-12T01:07:22.907Z,101588.88
2023-08-12T01:09:51.047Z,101583.63
2023-08-12T01:12:29.325Z,101574.56
2023-08-12T01:15:03.805Z,101585.44
2023-08-12T01:17:33.837Z,101583.84
2023-08-12T01:20:04.079Z,101577.50
2023-08-12T01:22:34.521Z,101559.19
2023-08-12T01:25:03.912Z,101570.38
2023-08-12T01:27:31.880Z,101573.06
2023-08-12T01:30:00.239Z,101569.66
2023-08-12T01:32:32.939Z,101571.34
2023-08-12T01:35:09.266Z,101566.97
2023-08-12T01:37:39.836Z,101572.44
2023-08-12T01:40:11.611Z,101576.97
2023-08-12T01:42:41.923Z,101575.25
2023-08-12T01:45:10.289Z,101586.00
2023-08-12T01:47:38.371Z,101580.72
2023-08-12T01:50:07.590Z,101581.69
2023-08-12T01:52:35.881Z,101587.28
2023-08-12T01:55:04.173Z,101589.13
2023-08-12T01:57:33.480Z,101591.81
2023-08-12T02:00:05.088Z,101589.25
2023-08-12T02:02:47.263Z,101590.19
2023-08-12T02:05:15.915Z,101593.88
2023-08-12T02:07:43.935Z,101592.16
2023-08-12T02:10:12.160Z,101592.28
2023-08-12T02:12:41.588Z,101593.09
2023-08-12T02:15:10.013Z,101585.59
2023-08-12T02:17:38.090Z,101590.53
2023-08-12T02:20:07.469Z,101596.00
2023-08-12T02:22:35.460Z,101603.25
2023-08-12T02:25:03.432Z,101594.31
2023-08-12T02:27:31.385Z,101589.78
2023-08-12T02:30:00.943Z,101572.88
2023-08-12T02:32:29.210Z,101580.94
2023-08-12T02:34:57.319Z,101566.56
2023-08-12T02:37:25.306Z,101566.56
2023-08-12T02:39:53.303Z,101572.78
2023-08-12T02:42:23.009Z,101572.88
2023-08-12T02:44:51.085Z,101573.75
2023-08-12T02:47:20.519Z,101571.19
2023-08-12T02:49:48.813Z,101571.19
2023-08-12T02:52:15.816Z,101576.66
2023-08-12T02:54:43.821Z,101567.75
2023-08-12T02:57:12.018Z,101561.50
2023-08-12T02:59:40.216Z,101561.84
2023-08-12T03:02:08.247Z,101572.28
2023-08-12T03:04:37.609Z,101568.72
2023-08-12T03:07:05.624Z,101573.34
2023-08-12T03:09:33.770Z,101568.06
2023-08-12T03:12:03.937Z,101565.38
2023-08-12T03:14:32.276Z,101570.66
2023-08-12T03:17:01.908Z,101560.78
2023-08-12T03:19:30.764Z,101561.59
2023-08-12T03:22:01.008Z,101557.00
2023-08-12T03:24:29.033Z,101563.47
2023-08-12T03:26:56.958Z,101550.84
2023-08-12T03:29:25.097Z,101555.28
2023-08-12T03:31:54.189Z,101555.28
2023-08-12T03:34:23.581Z,101552.59
2023-08-12T03:36:51.891Z,101557.00
2023-08-12T03:39:22.906Z,101552.47
2023-08-12T03:41:52.106Z,101550.63
2023-08-12T03:44:20.672Z,101549.78
2023-08-12T03:46:49.566Z,101552.47
2023-08-12T03:49:19.031Z,101556.00
2023-08-12T03:51:49.204Z,101558.59
2023-08-12T03:54:17.258Z,101562.13
2023-08-12T03:56:46.736Z,101559.34
2023-08-12T03:59:14.961Z,101546.00
2023-08-12T04:01:43.544Z,101484.13
2023-08-12T04:04:14.232Z,101543.09
2023-08-12T04:06:42.746Z,101545.69
2023-08-12T04:09:10.795Z,101549.13
2023-08-12T04:11:38.861Z,101548.16
2023-08-12T04:14:08.222Z,101545.34
2023-08-12T04:16:36.239Z,101550.50
2023-08-12T04:19:04.262Z,101503.53
2023-08-12T04:21:32.367Z,101527.41
2023-08-12T04:24:00.528Z,101537.16
2023-08-12T04:26:28.577Z,101535.06
2023-08-12T04:28:56.798Z,101534.53
2023-08-12T04:31:26.864Z,101534.09
2023-08-12T04:33:54.979Z,101524.94
2023-08-12T04:36:25.552Z,101529.09
2023-08-12T04:38:54.256Z,101532.56
2023-08-12T04:41:25.052Z,101528.78
2023-08-12T04:43:54.558Z,101527.78
2023-08-12T04:46:26.601Z,101531.47
2023-08-12T04:48:54.926Z,101528.78
2023-08-12T04:51:22.936Z,101523.41
2023-08-12T04:53:50.997Z,101520.94
2023-08-12T04:56:19.345Z,101518.13
2023-08-12T04:58:47.646Z,101520.94
2023-08-12T05:01:15.636Z,101527.28
2023-08-12T05:03:45.290Z,101528.28
2023-08-12T05:06:13.276Z,101531.94
2023-08-12T05:08:41.400Z,101531.06
2023-08-12T05:11:09.606Z,101527.50
2023-08-12T05:13:37.601Z,101536.34
2023-08-12T05:16:06.327Z,101540.97
2023-08-12T05:18:34.345Z,101539.25
2023-08-12T05:21:04.093Z,101527.50
2023-08-12T05:23:32.179Z,101527.50
2023-08-12T05:26:00.339Z,101525.91
2023-08-12T05:28:28.323Z,101530.31
2023-08-12T05:30:56.685Z,101519.69
2023-08-12T05:33:25.109Z,101525.91
2023-08-12T05:35:53.263Z,101532.28
2023-08-12T05:38:22.562Z,101523.34
2023-08-12T05:40:50.648Z,101524.31
2023-08-12T05:43:18.796Z,101528.72
2023-08-12T05:45:46.904Z,101527.84
2023-08-12T05:48:15.044Z,101520.78
2023-08-12T05:50:43.033Z,101513.53
2023-08-12T05:53:11.022Z,101517.09
2023-08-12T05:55:40.533Z,101522.38
2023-08-12T05:58:09.523Z,101524.06
2023-08-12T06:00:37.515Z,101517.97
2023-08-12T06:03:06.107Z,101530.44
2023-08-12T06:05:34.108Z,101517.84
2023-08-12T06:08:02.080Z,101515.28
2023-08-12T06:10:30.032Z,101507.94
2023-08-12T06:12:59.301Z,101499.78
2023-08-12T06:15:27.258Z,101502.47
2023-08-12T06:17:55.327Z,101501.69
2023-08-12T06:20:23.298Z,101503.28
2023-08-12T06:22:51.579Z,101500.59
2023-08-12T06:25:19.865Z,101479.31
2023-08-12T06:27:48.144Z,101509.53
2023-08-12T06:30:17.633Z,101508.66
2023-08-12T06:32:45.580Z,101509.53
2023-08-12T06:35:13.644Z,101511.38
2023-08-12T06:37:42.753Z,101506.84
2023-08-12T06:40:11.089Z,101513.97
2023-08-12T06:42:39.260Z,101499.63
2023-08-12T06:45:08.636Z,101511.13
2023-08-12T06:47:38.186Z,101505.75
2023-08-12T06:50:06.762Z,101512.00
2023-08-12T06:52:34.813Z,101500.59
2023-08-12T06:55:02.799Z,101500.38
2023-08-12T06:57:30.805Z,101493.16
2023-08-12T06:59:58.751Z,101481.53
2023-08-12T07:02:26.807Z,101490.47
2023-08-12T07:04:56.176Z,101494.91
2023-08-12T07:07:24.215Z,101491.34
2023-08-12T07:09:52.312Z,101483.28
2023-08-12T07:12:20.412Z,101488.66
2023-08-12T07:14:48.397Z,101492.22
2023-08-12T07:17:16.373Z,101501.25
2023-08-12T07:19:44.471Z,101494.47
2023-08-12T07:22:14.284Z,101513.59
2023-08-12T07:24:42.562Z,101510.06
2023-08-12T07:27:10.548Z,101510.06
2023-08-12T07:29:38.509Z,101514.59
2023-08-12T07:32:07.193Z,101515.44
2023-08-12T07:34:35.200Z,101507.50
2023-08-12T07:37:03.186Z,101518.13
2023-08-12T07:39:32.639Z,101519.84
2023-08-12T07:42:00.627Z,101520.81
2023-08-12T07:44:29.011Z,101509.31
2023-08-12T07:46:57.182Z,101516.44
2023-08-12T07:49:25.417Z,101524.38
2023-08-12T07:51:53.607Z,101520.72
2023-08-12T07:54:21.656Z,101510.81
2023-08-12T07:56:51.082Z,101512.53
2023-08-12T07:59:18.987Z,101512.41
2023-08-12T08:01:47.014Z,101505.19
2023-08-12T08:04:15.143Z,101500.66
2023-08-12T08:06:43.104Z,101503.25
2023-08-12T08:09:11.586Z,101476.38
2023-08-12T08:11:39.655Z,101496.78
2023-08-12T08:14:08.992Z,101499.47
2023-08-12T08:16:37.798Z,101497.63
2023-08-12T08:19:06.202Z,101494.94
2023-08-12T08:21:34.217Z,101500.44
2023-08-12T08:24:02.227Z,101502.16
2023-08-12T08:26:30.324Z,101503.88
2023-08-12T08:28:58.314Z,101505.69
2023-08-12T08:31:27.742Z,101494.09
2023-08-12T08:33:55.762Z,101501.19
2023-08-12T08:36:24.152Z,101496.53
2023-08-12T08:38:52.204Z,101498.16
2023-08-12T08:41:21.238Z,101497.06
2023-08-12T08:43:50.624Z,101487.91
2023-08-12T08:46:18.726Z,101491.69
2023-08-12T08:48:51.046Z,101502.97
2023-08-12T08:51:22.013Z,101504.06
2023-08-12T08:53:52.371Z,101509.19
2023-08-12T08:56:22.433Z,101502.84
2023-08-12T08:58:50.473Z,101503.47
2023-08-12T09:01:23.369Z,101504.19
2023-08-12T09:03:54.535Z,101499.69
2023-08-12T09:06:24.013Z,101507.63
2023-08-12T09:08:53.935Z,101502.97
2023-08-12T09:11:22.084Z,101504.56
2023-08-12T09:13:50.445Z,101499.31
2023-08-12T09:16:18.532Z,101500.78
2023-08-12T09:18:47.157Z,101484.41
2023-08-12T09:21:17.633Z,101515.75
2023-08-12T09:23:46.206Z,101513.94
2023-08-12T09:26:19.138Z,101503.16
2023-08-12T09:28:47.956Z,101492.25
2023-08-12T09:31:25.830Z,101488.59
2023-08-12T09:33:54.449Z,101500.09
2023-08-12T09:36:24.659Z,101494.50
2023-08-12T09:38:53.748Z,101499.69
2023-08-12T09:41:21.861Z,101489.63
2023-08-12T09:43:49.970Z,101493.78
2023-08-12T09:46:18.160Z,101493.56
2023-08-12T09:48:46.252Z,101496.03
2023-08-12T09:51:14.442Z,101494.91
2023-08-12T09:53:44.398Z,101484.00
2023-08-12T09:56:15.448Z,101487.56
2023-08-12T09:58:45.307Z,101492.97
2023-08-12T10:01:14.614Z,101494.69
2023-08-12T10:03:46.946Z,101478.13
2023-08-12T10:06:16.726Z,101487.56
2023-08-12T10:08:48.425Z,101488.44
2023-08-12T10:11:16.930Z,101484.00
2023-08-12T10:13:45.208Z,101483.06
2023-08-12T10:16:13.885Z,101483.78
2023-08-12T10:18:42.262Z,101480.34
2023-08-12T10:21:12.731Z,101486.97
2023-08-12T10:23:45.881Z,101485.03
2023-08-12T10:26:19.196Z,101489.31
2023-08-12T10:28:47.551Z,101475.09
2023-08-12T10:31:15.786Z,101481.34
2023-08-12T10:33:44.668Z,101486.63
2023-08-12T10:36:13.002Z,101482.06
2023-08-12T10:38:41.218Z,101485.75
2023-08-12T10:41:21.845Z,101478.66
2023-08-12T10:43:57.782Z,101485.63
2023-08-12T10:46:30.967Z,101479.38
2023-08-12T10:49:02.877Z,101484.78
2023-08-12T10:51:47.103Z,101483.81
2023-08-12T10:54:33.086Z,101476.59
2023-08-12T10:57:12.222Z,101470.34
2023-08-12T10:59:56.953Z,101468.59
2023-08-12T11:02:30.066Z,101466.03
2023-08-12T11:04:59.834Z,101469.84
2023-08-12T11:07:36.191Z,101460.91
2023-08-12T11:10:12.716Z,101476.19
2023-08-12T11:12:43.388Z,101470.22
2023-08-12T11:15:12.304Z,101477.44
2023-08-12T11:17:42.106Z,101466.75
2023-08-12T11:20:12.187Z,101463.22
2023-08-12T11:22:41.297Z,101468.63
2023-08-12T11:25:11.215Z,101463.47
2023-08-12T11:27:44.869Z,101460.53
2023-08-12T11:30:16.411Z,101450.84
2023-08-12T11:32:44.936Z,101459.91
2023-08-12T11:35:14.243Z,101453.06
2023-08-12T11:37:44.454Z,101452.69
2023-08-12T11:40:15.478Z,101447.78
2023-08-12T11:42:46.632Z,101454.66
2023-08-12T11:45:15.618Z,101457.44
2023-08-12T11:47:44.447Z,101445.81
2023-08-12T11:50:14.380Z,101443.25
2023-08-12T11:52:42.909Z,101429.28
2023-08-12T11:55:11.392Z,101449.59
2023-08-12T11:57:41.480Z,101450.59
2023-08-12T12:00:16.620Z,101447.78
2023-08-12T12:02:49.994Z,101439.09
2023-08-12T12:05:20.959Z,101439.94
2023-08-12T12:07:51.462Z,101445.44
2023-08-12T12:10:21.425Z,101453.53
2023-08-12T12:12:50.197Z,101446.53
2023-08-12T12:15:19.886Z,101452.66
2023-08-12T12:17:48.383Z,101423.34
2023-08-12T12:20:16.469Z,101450.09
2023-08-12T12:22:46.257Z,101447.41
2023-08-12T12:25:15.797Z,101451.06
2023-08-12T12:27:46.348Z,101448.50
2023-08-12T12:30:16.431Z,101445.81
2023-08-12T12:32:46.160Z,101444.06
2023-08-12T12:35:14.490Z,101443.19
2023-08-12T12:37:43.668Z,101449.56
2023-08-12T12:40:13.144Z,101444.19
2023-08-12T12:42:41.138Z,101446.97
2023-08-12T12:45:10.808Z,101432.78
2023-08-12T12:47:39.762Z,101435.47
2023-08-12T12:50:09.681Z,101434.50
2023-08-12T12:52:37.697Z,101432.78
2023-08-12T12:55:06.454Z,101430.09
2023-08-12T12:57:34.473Z,101443.69
2023-08-12T13:00:02.582Z,101435.22
2023-08-12T13:02:30.728Z,101443.69
2023-08-12T13:04:58.687Z,101439.28
2023-08-12T13:07:28.032Z,101431.44
2023-08-12T13:09:55.993Z,101435.84
2023-08-12T13:12:23.991Z,101431.28
2023-08-12T13:14:51.940Z,101423.22
2023-08-12T13:17:20.152Z,101433.16
2023-08-12T13:19:48.115Z,101432.28
2023-08-12T13:22:16.197Z,101430.78
2023-08-12T13:24:45.514Z,101432.53
2023-08-12T13:27:14.468Z,101430.56
2023-08-12T13:29:42.628Z,101432.28
2023-08-12T13:32:11.021Z,101433.25
2023-08-12T13:34:39.094Z,101428.97
2023-08-12T13:37:07.072Z,101432.28
2023-08-12T13:39:35.087Z,101439.38
2023-08-12T13:42:04.681Z,101432.28
2023-08-12T13:44:32.735Z,101421.88
2023-08-12T13:47:00.706Z,101418.81
2023-08-12T13:49:28.670Z,101414.31
2023-08-12T13:51:57.033Z,101422.38
2023-08-12T13:54:25.007Z,101421.53
2023-08-12T13:56:52.941Z,101426.91
2023-08-12T13:59:22.561Z,101404.69
2023-08-12T14:01:50.648Z,101422.38
2023-08-12T14:04:18.625Z,101420.53
2023-08-12T14:06:47.580Z,101422.38
2023-08-12T14:09:16.300Z,101410.75
2023-08-12T14:11:44.253Z,101418.81
2023-08-12T14:14:12.241Z,101422.38
2023-08-12T14:16:41.802Z,101418.81
2023-08-12T14:19:09.870Z,101422.47
2023-08-12T14:21:37.963Z,101419.78
2023-08-12T14:24:06.460Z,101418.81
2023-08-12T14:26:35.370Z,101411.72
2023-08-12T14:31:31.125Z,101411.72
2023-08-12T14:38:56.089Z,101404.72
2023-08-12T14:41:24.091Z,101404.72
2023-08-12T14:43:52.173Z,101408.44
2023-08-12T14:46:20.285Z,101402.03
2023-08-12T14:48:48.249Z,101410.25
2023-08-12T14:51:17.652Z,101405.72
2023-08-12T14:53:45.615Z,101408.44
2023-08-12T14:56:13.621Z,101394.97
2023-08-12T14:58:41.631Z,101396.88
2023-08-12T15:01:09.633Z,101397.75
2023-08-12T15:03:37.865Z,101394.47
2023-08-12T15:06:07.031Z,101388.31
2023-08-12T15:08:36.470Z,101395.69
2023-08-12T15:11:05.089Z,101397.75
2023-08-12T15:13:33.133Z,101403.78
2023-08-12T15:16:01.258Z,101403.78
2023-08-12T15:18:29.249Z,101406.47
2023-08-12T15:20:57.264Z,101401.06
2023-08-12T15:23:25.547Z,101411.63
2023-08-12T15:25:55.025Z,101397.75
2023-08-12T15:28:22.978Z,101409.03
2023-08-12T15:30:51.289Z,101402.66
2023-08-12T15:33:19.486Z,101401.81
2023-08-12T15:35:47.497Z,101410.13
2023-08-12T15:38:15.578Z,101399.13
2023-08-12T15:40:43.521Z,101397.03
2023-08-12T15:43:13.045Z,101402.66
2023-08-12T15:45:42.985Z,101394.09
2023-08-12T15:48:11.122Z,101406.31
2023-08-12T15:50:41.196Z,101406.31
2023-08-12T15:53:10.833Z,101402.91
2023-08-12T15:55:38.903Z,101393.97
2023-08-12T15:58:07.023Z,101379.91
2023-08-12T16:00:36.489Z,101392.13
2023-08-12T16:03:04.866Z,101386.41
2023-08-12T16:05:35.705Z,101386.75
2023-08-12T16:08:04.708Z,101382.34
2023-08-12T16:10:32.670Z,101385.28
2023-08-12T16:13:00.714Z,101387.84
2023-08-12T16:15:28.851Z,101388.94
2023-08-12T16:17:58.292Z,101387.84
2023-08-12T16:20:26.333Z,101380.00
2023-08-12T16:22:54.348Z,101374.63
2023-08-12T16:25:22.364Z,101363.25
2023-08-12T16:27:50.324Z,101370.25
2023-08-12T16:30:18.500Z,101373.91
2023-08-12T16:32:46.489Z,101370.34
2023-08-12T16:35:16.179Z,101373.03
2023-08-12T16:37:44.186Z,101360.56
2023-08-12T16:40:13.262Z,101360.56
2023-08-12T16:42:41.286Z,101356.16
2023-08-12T16:45:10.559Z,101365.94
2023-08-12T16:47:38.621Z,101356.16
2023-08-12T16:50:07.708Z,101355.19
2023-08-12T16:52:37.167Z,101357.00
2023-08-12T16:55:06.053Z,101332.38
2023-08-12T16:57:34.021Z,101362.50
2023-08-12T17:00:04.537Z,101368.75
2023-08-12T17:02:32.705Z,101355.28
2023-08-12T17:05:00.751Z,101356.25
2023-08-12T17:07:28.799Z,101348.06
2023-08-12T17:09:58.936Z,101343.56
2023-08-12T17:12:27.064Z,101348.06
2023-08-12T17:14:55.166Z,101352.59
2023-08-12T17:17:23.716Z,101348.19
2023-08-12T17:19:51.981Z,101355.41
2023-08-12T17:22:21.182Z,101354.44
2023-08-12T17:24:50.311Z,101358.94
2023-08-12T17:27:20.046Z,101361.53
2023-08-12T17:29:48.058Z,101361.63
2023-08-12T17:32:16.376Z,101341.97
2023-08-12T17:34:44.497Z,101351.97
2023-08-12T17:37:12.596Z,101336.31
2023-08-12T17:39:41.141Z,101351.00
2023-08-12T17:42:09.114Z,101363.59
2023-08-12T17:44:38.423Z,101360.19
2023-08-12T17:47:07.147Z,101368.38
2023-08-12T17:49:35.163Z,101356.03
2023-08-12T17:52:03.302Z,101354.16
2023-08-12T17:54:31.326Z,101357.72
2023-08-12T17:56:59.392Z,101354.28
2023-08-12T17:59:27.465Z,101352.56
2023-08-12T18:01:56.836Z,101350.75
2023-08-12T18:04:24.808Z,101350.88
2023-08-12T18:06:53.108Z,101351.75
2023-08-12T18:09:21.152Z,101358.09
2023-08-12T18:11:49.115Z,101340.56
2023-08-12T18:14:17.423Z,101349.16
2023-08-12T18:16:45.528Z,101361.75
2023-08-12T18:19:14.996Z,101346.69
2023-08-12T18:21:43.039Z,101345.72
2023-08-12T18:24:11.084Z,101341.53
2023-08-12T18:26:39.274Z,101351.09
2023-08-12T18:29:07.244Z,101352.06
2023-08-12T18:31:39.614Z,101337.63
2023-08-12T18:34:08.201Z,101353.91
2023-08-12T18:36:37.478Z,101347.78
2023-08-12T18:39:05.883Z,101337.75
2023-08-12T18:41:33.944Z,101356.72
2023-08-12T18:44:02.178Z,101354.91
2023-08-12T18:46:30.178Z,101359.53
2023-08-12T18:48:58.243Z,101355.84
2023-08-12T18:51:26.176Z,101354.16
2023-08-12T18:53:57.736Z,101347.06
2023-08-12T18:56:27.089Z,101345.31
2023-08-12T18:58:55.123Z,101351.72
2023-08-12T19:01:23.411Z,101344.50
2023-08-12T19:03:51.467Z,101360.75
2023-08-12T19:06:19.557Z,101355.34
2023-08-12T19:08:47.471Z,101334.28
2023-08-12T19:11:21.744Z,101359.03
2023-08-12T19:13:50.007Z,101351.94
2023-08-12T19:16:18.201Z,101355.59
2023-08-12T19:18:46.820Z,101356.47
2023-08-12T19:21:14.854Z,101352.16
2023-08-12T19:23:42.898Z,101342.28
2023-08-12T19:26:10.944Z,101344.22
2023-08-12T19:28:40.375Z,101345.09
2023-08-12T19:31:08.283Z,101338.84
2023-08-12T19:33:36.294Z,101329.78
2023-08-12T19:36:04.559Z,101338.94
2023-08-12T19:38:32.577Z,101334.56
2023-08-12T19:41:00.764Z,101332.84
2023-08-12T19:43:28.696Z,101340.03
2023-08-12T19:45:58.104Z,101347.25
2023-08-12T19:48:26.129Z,101337.59
2023-08-12T19:50:55.124Z,101342.88
2023-08-12T19:53:23.339Z,101344.69
2023-08-12T19:55:51.329Z,101337.59
2023-08-12T19:58:19.527Z,101341.28
2023-08-12T20:00:47.665Z,101338.59
2023-08-12T20:03:17.082Z,101336.75
2023-08-12T20:05:45.196Z,101338.59
2023-08-12T20:08:13.234Z,101342.13
2023-08-12T20:10:41.176Z,101314.66
2023-08-12T20:13:09.273Z,101333.78
2023-08-12T20:15:37.240Z,101340.53
2023-08-12T20:18:05.963Z,101339.66
2023-08-12T20:20:35.370Z,101344.06
2023-08-12T20:23:06.603Z,101338.81
2023-08-12T20:25:37.786Z,101321.63
2023-08-12T20:28:06.926Z,101334.38
2023-08-12T20:30:35.174Z,101338.94
2023-08-12T20:33:04.617Z,101335.38
2023-08-12T20:35:32.796Z,101339.91
2023-08-12T20:38:02.126Z,101332.78
2023-08-12T20:40:30.109Z,101330.97
2023-08-12T20:42:58.051Z,101325.72
2023-08-12T20:45:26.171Z,101325.72
2023-08-12T20:47:54.158Z,101315.06
2023-08-12T20:50:22.267Z,101314.09
2023-08-12T20:52:50.194Z,101306.09
2023-08-12T20:55:19.639Z,101309.06
2023-08-12T20:57:49.345Z,101307.09
2023-08-12T21:00:17.933Z,101292.50
2023-08-12T21:02:46.649Z,101303.66
2023-08-12T21:05:15.311Z,101280.75
2023-08-12T21:07:43.461Z,101300.22
2023-08-12T21:10:12.127Z,101294.34
2023-08-12T21:12:41.783Z,101290.81
2023-08-12T21:15:10.564Z,101307.56
2023-08-12T21:17:38.621Z,101304.00
2023-08-12T21:20:07.723Z,101299.63
2023-08-12T21:22:35.731Z,101305.00
2023-08-12T21:25:05.396Z,101301.44
2023-08-12T21:27:33.521Z,101298.97
2023-08-12T21:30:03.038Z,101311.34
2023-08-12T21:32:33.209Z,101307.78
2023-08-12T21:35:01.316Z,101306.94
2023-08-12T21:37:30.330Z,101299.84
2023-08-12T21:39:58.469Z,101294.47
2023-08-12T21:42:26.484Z,101286.41
2023-08-12T21:44:54.576Z,101286.53
2023-08-12T21:47:23.980Z,101284.81
2023-08-12T21:49:52.067Z,101288.44
2023-08-12T21:52:20.149Z,101294.69
2023-08-12T21:54:48.644Z,101294.69
2023-08-12T21:57:16.801Z,101292.13
2023-08-12T21:59:44.818Z,101288.59
2023-08-12T22:02:12.939Z,101272.31
2023-08-12T22:04:42.509Z,101287.00
2023-08-12T22:07:10.509Z,101286.13
2023-08-12T22:09:38.458Z,101282.56
2023-08-12T22:12:05.777Z,101283.56
2023-08-12T22:14:34.057Z,101281.84
2023-08-12T22:17:03.670Z,101278.28
2023-08-12T22:19:31.873Z,101279.28
2023-08-12T22:22:13.017Z,101275.72
2023-08-12T22:24:47.280Z,101258.00
2023-08-12T22:27:15.351Z,101257.13
2023-08-12T22:29:43.276Z,101250.81
2023-08-12T22:32:12.501Z,101258.97
2023-08-12T22:34:40.706Z,101259.94
2023-08-12T22:37:10.941Z,101256.41
2023-08-12T22:39:39.042Z,101266.31
2023-08-12T22:42:07.615Z,101249.31
2023-08-12T22:44:35.800Z,101251.13
2023-08-12T22:47:03.878Z,101246.75
2023-08-12T22:49:31.962Z,101244.06
2023-08-12T22:51:59.922Z,101250.41
2023-08-12T22:54:29.447Z,101250.53
2023-08-12T22:56:57.428Z,101247.84
2023-08-12T22:59:25.582Z,101245.16
2023-08-12T23:01:53.688Z,101234.41
2023-08-12T23:04:21.873Z,101234.41
2023-08-12T23:06:49.819Z,101238.91
2023-08-12T23:09:18.080Z,101232.69
2023-08-12T23:11:47.484Z,101223.88
2023-08-12T23:14:15.544Z,101225.84
2023-08-12T23:16:43.640Z,101228.53
2023-08-12T23:19:12.517Z,101216.78
2023-08-12T23:21:40.739Z,101211.63
2023-08-12T23:24:09.213Z,101207.97
2023-08-12T23:26:38.120Z,101206.25
2023-08-12T23:29:08.105Z,101203.56
2023-08-12T23:31:36.164Z,101200.06
2023-08-12T23:34:04.152Z,101200.16
2023-08-12T23:36:34.272Z,101200.28
2023-08-12T23:39:02.413Z,101194.28
2023-08-12T23:41:30.423Z,101200.28
2023-08-12T23:43:58.471Z,101200.38
2023-08-12T23:46:27.891Z,101195.72
2023-08-12T23:48:55.907Z,101180.09
2023-08-12T23:51:23.900Z,101180.69
2023-08-12T23:53:51.915Z,101178.88
2023-08-12T23:56:19.933Z,101167.34
2023-08-12T23:58:48.211Z,101178.16
